TCA7378 SVMD-SVFM
Flight info
| Callsign | TCA7378 |
|---|---|
| Flight time | 1h 1m |
| Altitude | 41000 |
| Route | 084728N0704947W DCT VRA W8 BRM DCT SSB DCT TUY |
| Aircraft | C25B/M-SDE2E3FGHRWXY/LB1 |
Departure
| Time | 2026-05-06 21:10 |
|---|---|
| Airport | Alberto Carnevalli Airport (SVMD) |
Arrival
| Time | 2026-05-06 22:12 |
|---|---|
| Airport | Generalissimo Francisco de Miranda Air Base (SVFM) |
| Time | Latitude | Longitude | Altitude | Speed | Heading |
|---|---|---|---|---|---|
| 2026-05-06 21:04 | 8.58284 | -71.16129 | 4905 ft | 0 kts | 57° |
| 2026-05-06 21:07 | 8.58285 | -71.16127 | 4900 ft | 3 kts | 62° |
| 2026-05-06 21:07 | 8.58286 | -71.16046 | 4917 ft | 19 kts | 85° |
| 2026-05-06 21:08 | 8.58361 | -71.15897 | 4939 ft | 24 kts | 60° |
| 2026-05-06 21:08 | 8.58430 | -71.15779 | 4955 ft | 16 kts | 59° |
| 2026-05-06 21:08 | 8.58476 | -71.15699 | 4970 ft | 11 kts | 59° |
| 2026-05-06 21:08 | 8.58514 | -71.15633 | 4981 ft | 12 kts | 59° |
| 2026-05-06 21:09 | 8.58551 | -71.15558 | 4992 ft | 12 kts | 78° |
| 2026-05-06 21:09 | 8.58582 | -71.15525 | 4999 ft | 6 kts | 236° |
| 2026-05-06 21:09 | 8.58572 | -71.15538 | 4996 ft | 7 kts | 239° |
| 2026-05-06 21:09 | 8.58336 | -71.15942 | 4932 ft | 124 kts | 239° |
| 2026-05-06 21:10 | 8.57754 | -71.16872 | 5369 ft | 178 kts | 235° |
| 2026-05-06 21:10 | 8.57024 | -71.18019 | 6257 ft | 210 kts | 238° |
| 2026-05-06 21:10 | 8.56204 | -71.19354 | 7261 ft | 237 kts | 235° |
| 2026-05-06 21:10 | 8.55270 | -71.20829 | 8286 ft | 257 kts | 237° |
| 2026-05-06 21:11 | 8.54308 | -71.22383 | 9346 ft | 265 kts | 237° |
| 2026-05-06 21:11 | 8.53355 | -71.23968 | 10340 ft | 271 kts | 243° |
| 2026-05-06 21:11 | 8.52731 | -71.25782 | 11318 ft | 276 kts | 251° |
| 2026-05-06 21:11 | 8.52029 | -71.27599 | 12374 ft | 280 kts | 245° |
| 2026-05-06 21:12 | 8.51312 | -71.29445 | 13355 ft | 285 kts | 250° |
| 2026-05-06 21:12 | 8.50713 | -71.31368 | 14364 ft | 289 kts | 251° |
| 2026-05-06 21:12 | 8.50037 | -71.33307 | 15325 ft | 295 kts | 250° |
| 2026-05-06 21:12 | 8.49348 | -71.35276 | 16261 ft | 300 kts | 251° |
| 2026-05-06 21:13 | 8.48808 | -71.37330 | 17107 ft | 306 kts | 264° |
| 2026-05-06 21:13 | 8.48669 | -71.39453 | 17974 ft | 310 kts | 266° |
| 2026-05-06 21:13 | 8.48415 | -71.41634 | 18862 ft | 315 kts | 264° |
| 2026-05-06 21:13 | 8.48170 | -71.43840 | 19780 ft | 317 kts | 266° |
| 2026-05-06 21:14 | 8.48250 | -71.46051 | 20632 ft | 317 kts | 282° |
| 2026-05-06 21:14 | 8.48831 | -71.48194 | 21486 ft | 317 kts | 294° |
| 2026-05-06 21:14 | 8.49907 | -71.50137 | 22314 ft | 318 kts | 305° |
| 2026-05-06 21:14 | 8.51192 | -71.51977 | 23095 ft | 322 kts | 306° |
| 2026-05-06 21:15 | 8.52488 | -71.53831 | 23874 ft | 325 kts | 306° |
| 2026-05-06 21:15 | 8.53792 | -71.55708 | 24613 ft | 328 kts | 305° |
| 2026-05-06 21:15 | 8.55233 | -71.57464 | 25254 ft | 332 kts | 317° |
| 2026-05-06 21:15 | 8.57086 | -71.58881 | 25919 ft | 337 kts | 328° |
| 2026-05-06 21:16 | 8.59235 | -71.59849 | 26581 ft | 341 kts | 341° |
| 2026-05-06 21:16 | 8.61576 | -71.60310 | 27209 ft | 346 kts | 355° |
| 2026-05-06 21:16 | 8.63993 | -71.60210 | 27833 ft | 351 kts | 8° |
| 2026-05-06 21:16 | 8.66348 | -71.59520 | 28460 ft | 355 kts | 22° |
| 2026-05-06 21:17 | 8.68498 | -71.58276 | 29047 ft | 359 kts | 36° |
| 2026-05-06 21:17 | 8.70297 | -71.56552 | 29605 ft | 364 kts | 50° |
| 2026-05-06 21:17 | 8.71829 | -71.54455 | 30189 ft | 368 kts | 54° |
| 2026-05-06 21:17 | 8.73310 | -71.52377 | 30763 ft | 371 kts | 54° |
| 2026-05-06 21:18 | 8.74769 | -71.50335 | 32185 ft | 344 kts | 54° |
| 2026-05-06 21:18 | 8.76126 | -71.48457 | 33659 ft | 321 kts | 53° |
| 2026-05-06 21:18 | 8.77442 | -71.46634 | 34361 ft | 323 kts | 53° |
| 2026-05-06 21:18 | 8.78770 | -71.44786 | 34941 ft | 327 kts | 53° |
| 2026-05-06 21:19 | 8.80106 | -71.42915 | 35528 ft | 330 kts | 53° |
| 2026-05-06 21:19 | 8.81464 | -71.41033 | 36088 ft | 333 kts | 53° |
| 2026-05-06 21:19 | 8.82817 | -71.39155 | 36604 ft | 337 kts | 53° |
| 2026-05-06 21:19 | 8.84200 | -71.37227 | 37112 ft | 340 kts | 53° |
| 2026-05-06 21:20 | 8.85597 | -71.35279 | 37613 ft | 343 kts | 53° |
| 2026-05-06 21:20 | 8.87008 | -71.33318 | 38105 ft | 346 kts | 53° |
| 2026-05-06 21:20 | 8.88427 | -71.31338 | 38578 ft | 349 kts | 53° |
| 2026-05-06 21:20 | 8.89861 | -71.29344 | 39040 ft | 352 kts | 53° |
| 2026-05-06 21:21 | 8.91305 | -71.27336 | 39489 ft | 354 kts | 53° |
| 2026-05-06 21:21 | 8.92753 | -71.25313 | 39904 ft | 357 kts | 53° |
| 2026-05-06 21:21 | 8.94220 | -71.23270 | 40318 ft | 359 kts | 53° |
| 2026-05-06 21:21 | 8.95692 | -71.21221 | 40722 ft | 362 kts | 53° |
| 2026-05-06 21:22 | 8.97159 | -71.19174 | 40959 ft | 369 kts | 53° |
| 2026-05-06 21:22 | 8.98696 | -71.17032 | 40967 ft | 383 kts | 53° |
| 2026-05-06 21:22 | 9.00283 | -71.14818 | 40978 ft | 395 kts | 53° |
| 2026-05-06 21:22 | 9.01918 | -71.12539 | 40983 ft | 406 kts | 53° |
| 2026-05-06 21:23 | 9.03596 | -71.10202 | 40982 ft | 415 kts | 53° |
| 2026-05-06 21:23 | 9.07058 | -71.05370 | 40986 ft | 432 kts | 53° |
| 2026-05-06 21:24 | 9.10617 | -71.00404 | 40994 ft | 445 kts | 53° |
| 2026-05-06 21:24 | 9.14293 | -70.95270 | 40991 ft | 455 kts | 53° |
| 2026-05-06 21:25 | 9.18038 | -70.90040 | 40999 ft | 463 kts | 53° |
| 2026-05-06 21:25 | 9.21797 | -70.84784 | 40993 ft | 444 kts | 53° |
| 2026-05-06 21:26 | 9.25378 | -70.79782 | 40991 ft | 427 kts | 53° |
| 2026-05-06 21:26 | 9.28781 | -70.75022 | 40990 ft | 417 kts | 53° |
| 2026-05-06 21:27 | 9.32165 | -70.70284 | 41002 ft | 413 kts | 53° |
| 2026-05-06 21:27 | 9.35524 | -70.65584 | 41029 ft | 411 kts | 53° |
| 2026-05-06 21:28 | 9.38861 | -70.60911 | 41022 ft | 409 kts | 53° |
| 2026-05-06 21:28 | 9.42153 | -70.56272 | 41029 ft | 407 kts | 56° |
| 2026-05-06 21:29 | 9.44646 | -70.51127 | 41040 ft | 407 kts | 64° |
| 2026-05-06 21:29 | 9.47062 | -70.45948 | 41039 ft | 406 kts | 64° |
| 2026-05-06 21:30 | 9.49450 | -70.40759 | 41050 ft | 406 kts | 64° |
| 2026-05-06 21:30 | 9.51847 | -70.35577 | 41050 ft | 406 kts | 64° |
| 2026-05-06 21:31 | 9.54220 | -70.30433 | 41059 ft | 406 kts | 64° |
| 2026-05-06 21:31 | 9.56609 | -70.25254 | 41066 ft | 405 kts | 64° |
| 2026-05-06 21:32 | 9.58997 | -70.20077 | 41068 ft | 406 kts | 64° |
| 2026-05-06 21:32 | 9.62561 | -70.12343 | 41078 ft | 406 kts | 64° |
| 2026-05-06 21:33 | 9.64948 | -70.07163 | 41077 ft | 406 kts | 64° |
| 2026-05-06 21:33 | 9.67333 | -70.01984 | 41077 ft | 405 kts | 64° |
| 2026-05-06 21:34 | 9.69716 | -69.96803 | 41085 ft | 405 kts | 64° |
| 2026-05-06 21:34 | 9.72228 | -69.91749 | 41084 ft | 404 kts | 59° |
| 2026-05-06 21:35 | 9.75057 | -69.86824 | 41090 ft | 404 kts | 59° |
| 2026-05-06 21:35 | 9.77844 | -69.81873 | 41092 ft | 404 kts | 59° |
| 2026-05-06 21:36 | 9.80653 | -69.76931 | 41104 ft | 404 kts | 59° |
| 2026-05-06 21:36 | 9.83436 | -69.72013 | 41108 ft | 405 kts | 59° |
| 2026-05-06 21:37 | 9.86238 | -69.67065 | 41112 ft | 405 kts | 59° |
| 2026-05-06 21:37 | 9.89041 | -69.62112 | 41116 ft | 405 kts | 59° |
| 2026-05-06 21:38 | 9.91843 | -69.57159 | 41118 ft | 405 kts | 59° |
| 2026-05-06 21:38 | 9.94627 | -69.52237 | 41121 ft | 405 kts | 59° |
| 2026-05-06 21:39 | 9.97429 | -69.47282 | 41128 ft | 405 kts | 59° |
| 2026-05-06 21:39 | 10.00226 | -69.42333 | 41129 ft | 405 kts | 59° |
| 2026-05-06 21:40 | 10.02946 | -69.37334 | 41125 ft | 405 kts | 66° |
| 2026-05-06 21:40 | 10.03779 | -69.34645 | 41112 ft | 406 kts | 77° |
| 2026-05-06 21:40 | 10.04115 | -69.31806 | 41123 ft | 406 kts | 89° |
| 2026-05-06 21:41 | 10.03932 | -69.26084 | 41129 ft | 406 kts | 92° |
| 2026-05-06 21:41 | 10.03738 | -69.20353 | 41132 ft | 407 kts | 92° |
| 2026-05-06 21:42 | 10.03534 | -69.14614 | 41134 ft | 407 kts | 92° |
| 2026-05-06 21:42 | 10.03333 | -69.08913 | 41136 ft | 408 kts | 92° |
| 2026-05-06 21:43 | 10.03129 | -69.03161 | 41128 ft | 408 kts | 92° |
| 2026-05-06 21:43 | 10.02925 | -68.97405 | 41129 ft | 408 kts | 92° |
| 2026-05-06 21:44 | 10.02719 | -68.91645 | 41114 ft | 409 kts | 92° |
| 2026-05-06 21:44 | 10.02513 | -68.85918 | 41110 ft | 409 kts | 92° |
| 2026-05-06 21:45 | 10.02303 | -68.80147 | 41103 ft | 409 kts | 92° |
| 2026-05-06 21:45 | 10.02094 | -68.74378 | 41092 ft | 410 kts | 92° |
| 2026-05-06 21:46 | 10.01883 | -68.68599 | 41081 ft | 410 kts | 92° |
| 2026-05-06 21:46 | 10.01674 | -68.62859 | 41070 ft | 410 kts | 92° |
| 2026-05-06 21:47 | 10.01462 | -68.57092 | 41064 ft | 405 kts | 92° |
| 2026-05-06 21:47 | 10.01357 | -68.54284 | 41050 ft | 392 kts | 92° |
| 2026-05-06 21:47 | 10.01259 | -68.51554 | 40805 ft | 387 kts | 92° |
| 2026-05-06 21:48 | 10.01154 | -68.48819 | 40300 ft | 389 kts | 92° |
| 2026-05-06 21:48 | 10.01053 | -68.46064 | 39772 ft | 392 kts | 92° |
| 2026-05-06 21:48 | 10.00950 | -68.43294 | 39236 ft | 393 kts | 92° |
| 2026-05-06 21:48 | 10.00848 | -68.40553 | 38713 ft | 394 kts | 92° |
| 2026-05-06 21:49 | 10.00742 | -68.37771 | 38182 ft | 395 kts | 92° |
| 2026-05-06 21:49 | 10.00639 | -68.34988 | 37650 ft | 395 kts | 92° |
| 2026-05-06 21:49 | 10.00535 | -68.32204 | 37125 ft | 395 kts | 92° |
| 2026-05-06 21:49 | 10.00427 | -68.29423 | 36593 ft | 394 kts | 92° |
| 2026-05-06 21:50 | 10.00324 | -68.26653 | 36070 ft | 394 kts | 93° |
| 2026-05-06 21:50 | 10.00219 | -68.23872 | 35544 ft | 393 kts | 93° |
| 2026-05-06 21:50 | 10.00117 | -68.21110 | 35025 ft | 392 kts | 93° |
| 2026-05-06 21:50 | 10.00009 | -68.18388 | 34508 ft | 391 kts | 93° |
| 2026-05-06 21:51 | 9.99906 | -68.15637 | 33990 ft | 389 kts | 93° |
| 2026-05-06 21:51 | 9.99803 | -68.12898 | 33477 ft | 388 kts | 93° |
| 2026-05-06 21:51 | 9.99697 | -68.10170 | 32969 ft | 386 kts | 93° |
| 2026-05-06 21:51 | 9.99592 | -68.07454 | 32464 ft | 385 kts | 93° |
| 2026-05-06 21:52 | 9.99489 | -68.04748 | 31960 ft | 383 kts | 93° |
| 2026-05-06 21:52 | 9.99386 | -68.02054 | 31460 ft | 381 kts | 93° |
| 2026-05-06 21:52 | 9.99282 | -67.99406 | 30967 ft | 380 kts | 93° |
| 2026-05-06 21:52 | 9.99179 | -67.96741 | 30474 ft | 378 kts | 92° |
| 2026-05-06 21:53 | 9.99078 | -67.94082 | 29978 ft | 376 kts | 93° |
| 2026-05-06 21:53 | 9.98974 | -67.91437 | 29485 ft | 374 kts | 92° |
| 2026-05-06 21:53 | 9.98872 | -67.88804 | 28988 ft | 373 kts | 92° |
| 2026-05-06 21:53 | 9.98768 | -67.86185 | 28495 ft | 370 kts | 92° |
| 2026-05-06 21:54 | 9.98668 | -67.83581 | 28016 ft | 368 kts | 92° |
| 2026-05-06 21:54 | 9.98568 | -67.80992 | 27529 ft | 366 kts | 92° |
| 2026-05-06 21:54 | 9.98463 | -67.78420 | 27054 ft | 364 kts | 92° |
| 2026-05-06 21:54 | 9.98367 | -67.75900 | 26587 ft | 361 kts | 92° |
| 2026-05-06 21:55 | 9.98267 | -67.73373 | 26122 ft | 355 kts | 92° |
| 2026-05-06 21:55 | 9.98170 | -67.70892 | 25672 ft | 349 kts | 91° |
| 2026-05-06 21:55 | 9.98073 | -67.68458 | 25232 ft | 343 kts | 91° |
| 2026-05-06 21:55 | 9.97976 | -67.66058 | 24794 ft | 338 kts | 91° |
| 2026-05-06 21:56 | 9.97886 | -67.63693 | 24366 ft | 333 kts | 91° |
| 2026-05-06 21:56 | 9.97792 | -67.61363 | 23945 ft | 329 kts | 91° |
| 2026-05-06 21:56 | 9.97700 | -67.59060 | 23519 ft | 325 kts | 91° |
| 2026-05-06 21:56 | 9.97609 | -67.56811 | 23108 ft | 322 kts | 91° |
| 2026-05-06 21:57 | 9.97518 | -67.54557 | 22694 ft | 318 kts | 91° |
| 2026-05-06 21:57 | 9.97432 | -67.52329 | 22285 ft | 315 kts | 91° |
| 2026-05-06 21:57 | 9.97340 | -67.50115 | 21871 ft | 313 kts | 91° |
| 2026-05-06 21:57 | 9.97256 | -67.47920 | 21468 ft | 310 kts | 91° |
| 2026-05-06 21:58 | 9.97169 | -67.45743 | 21064 ft | 308 kts | 91° |
| 2026-05-06 21:58 | 9.97078 | -67.43580 | 20658 ft | 306 kts | 91° |
| 2026-05-06 21:58 | 9.96994 | -67.41433 | 20255 ft | 304 kts | 91° |
| 2026-05-06 21:58 | 9.96904 | -67.39328 | 19861 ft | 302 kts | 91° |
| 2026-05-06 21:59 | 9.96825 | -67.37209 | 19461 ft | 299 kts | 91° |
| 2026-05-06 21:59 | 9.96736 | -67.35108 | 19069 ft | 297 kts | 91° |
| 2026-05-06 21:59 | 9.96653 | -67.33023 | 18683 ft | 295 kts | 90° |
| 2026-05-06 21:59 | 9.96565 | -67.30954 | 18300 ft | 292 kts | 91° |
| 2026-05-06 22:00 | 9.96485 | -67.28901 | 17914 ft | 290 kts | 90° |
| 2026-05-06 22:00 | 9.96402 | -67.26866 | 17535 ft | 288 kts | 91° |
| 2026-05-06 22:00 | 9.96321 | -67.24864 | 17165 ft | 286 kts | 91° |
| 2026-05-06 22:00 | 9.96237 | -67.22832 | 16787 ft | 284 kts | 91° |
| 2026-05-06 22:01 | 9.96206 | -67.20863 | 16413 ft | 281 kts | 84° |
| 2026-05-06 22:01 | 9.96626 | -67.18942 | 16047 ft | 278 kts | 72° |
| 2026-05-06 22:01 | 9.97443 | -67.17175 | 15681 ft | 277 kts | 58° |
| 2026-05-06 22:01 | 9.98630 | -67.15647 | 15317 ft | 277 kts | 46° |
| 2026-05-06 22:02 | 10.00146 | -67.14439 | 14949 ft | 277 kts | 34° |
| 2026-05-06 22:02 | 10.01894 | -67.13616 | 14584 ft | 279 kts | 20° |
| 2026-05-06 22:02 | 10.03773 | -67.13127 | 14215 ft | 278 kts | 15° |
| 2026-05-06 22:02 | 10.05645 | -67.12654 | 13879 ft | 277 kts | 17° |
| 2026-05-06 22:03 | 10.07490 | -67.12189 | 13524 ft | 277 kts | 17° |
| 2026-05-06 22:03 | 10.09366 | -67.11719 | 13155 ft | 277 kts | 16° |
| 2026-05-06 22:03 | 10.11235 | -67.11247 | 12797 ft | 278 kts | 17° |
| 2026-05-06 22:03 | 10.13115 | -67.10779 | 12424 ft | 278 kts | 17° |
| 2026-05-06 22:04 | 10.14992 | -67.10305 | 12048 ft | 278 kts | 17° |
| 2026-05-06 22:04 | 10.16867 | -67.09842 | 11677 ft | 277 kts | 17° |
| 2026-05-06 22:04 | 10.18745 | -67.09361 | 11307 ft | 279 kts | 17° |
| 2026-05-06 22:04 | 10.20619 | -67.08887 | 10928 ft | 279 kts | 17° |
| 2026-05-06 22:05 | 10.22480 | -67.08427 | 10568 ft | 279 kts | 17° |
| 2026-05-06 22:05 | 10.24362 | -67.07955 | 10194 ft | 277 kts | 18° |
| 2026-05-06 22:05 | 10.26113 | -67.07199 | 9815 ft | 272 kts | 31° |
| 2026-05-06 22:05 | 10.27752 | -67.06246 | 9472 ft | 271 kts | 32° |
| 2026-05-06 22:06 | 10.29414 | -67.05331 | 9147 ft | 272 kts | 30° |
| 2026-05-06 22:06 | 10.31138 | -67.04521 | 8808 ft | 274 kts | 27° |
| 2026-05-06 22:06 | 10.32865 | -67.03707 | 8480 ft | 273 kts | 28° |
| 2026-05-06 22:06 | 10.34565 | -67.02844 | 8158 ft | 270 kts | 33° |
| 2026-05-06 22:07 | 10.36014 | -67.01663 | 7807 ft | 267 kts | 46° |
| 2026-05-06 22:07 | 10.37307 | -67.00419 | 7504 ft | 252 kts | 46° |
| 2026-05-06 22:07 | 10.38540 | -66.99218 | 7176 ft | 240 kts | 47° |
| 2026-05-06 22:07 | 10.39716 | -66.98062 | 6856 ft | 231 kts | 45° |
| 2026-05-06 22:08 | 10.40821 | -66.96906 | 6532 ft | 225 kts | 47° |
| 2026-05-06 22:08 | 10.41867 | -66.95789 | 6265 ft | 208 kts | 48° |
| 2026-05-06 22:08 | 10.42852 | -66.94800 | 6006 ft | 192 kts | 45° |
| 2026-05-06 22:08 | 10.43823 | -66.93919 | 5758 ft | 183 kts | 45° |
| 2026-05-06 22:09 | 10.44729 | -66.93071 | 5489 ft | 176 kts | 47° |
| 2026-05-06 22:09 | 10.45570 | -66.92178 | 5184 ft | 175 kts | 47° |
| 2026-05-06 22:09 | 10.46436 | -66.91309 | 4885 ft | 171 kts | 45° |
| 2026-05-06 22:09 | 10.47160 | -66.90578 | 4790 ft | 131 kts | 45° |
| 2026-05-06 22:10 | 10.47784 | -66.89955 | 4511 ft | 122 kts | 45° |
| 2026-05-06 22:10 | 10.48381 | -66.89353 | 4181 ft | 119 kts | 44° |
| 2026-05-06 22:10 | 10.48977 | -66.88755 | 3807 ft | 121 kts | 46° |
| 2026-05-06 22:10 | 10.49264 | -66.88001 | 3521 ft | 117 kts | 93° |
| 2026-05-06 22:11 | 10.49091 | -66.87187 | 3269 ft | 117 kts | 104° |
| 2026-05-06 22:11 | 10.48932 | -66.86406 | 3073 ft | 114 kts | 100° |
| 2026-05-06 22:11 | 10.48776 | -66.85598 | 2905 ft | 117 kts | 101° |
| 2026-05-06 22:11 | 10.48599 | -66.84808 | 2747 ft | 109 kts | 103° |
| 2026-05-06 22:12 | 10.48472 | -66.84239 | 2743 ft | 43 kts | 104° |
| 2026-05-06 22:12 | 10.48423 | -66.84148 | 2742 ft | 8 kts | 197° |
| 2026-05-06 22:12 | 10.48389 | -66.84175 | 2743 ft | 8 kts | 242° |
| 2026-05-06 22:12 | 10.48370 | -66.84248 | 2743 ft | 13 kts | 273° |
| 2026-05-06 22:13 | 10.48392 | -66.84295 | 2743 ft | 0 kts | 8° |